Hauptseite
METAR-TAF:

METAR-TAF

Flughäfen :

Aviano Air Base

Aviano, Italien

Breite: 46-02N, Länge: 012-36E, Höhe: 128 m

Beobachtung

Neuester Wetterbericht von vor 23 Stunden und 24 Minuten, um 19:55 UTC
Wind 7 kt aus Nord/Nordost
Temperatur 26°C
Luftfeuchtigkeit 74%
Luftdruck 1017 hPa
Sichtweite 10 km oder mehr
keine Wolken unter 1500 m und keine Kumulonimbus oder Gewitterwolken

METAR: LIPA 181955Z 03007KT CAVOK 26/21 Q1017 RMK FEW FEW140 VIS MIN 9999 WIND THR05 08005KT WIND THR23 15006KT A3006 BLU

Zeit: 21:19 (19:19 UTC)

Prognose

Neuester Wetterbericht von vor 26 Stunden und 19 Minuten, um 17:00 UTC
Gültige Prognose vom 18 um 18 UTC bis 19 um 03 UTC
Wind 5 kt aus Nord
Sichtweite 10 km oder mehr
Leicht bewölkt in der Höhe von 5000 ft

TAF: LIPA 181700Z 1818/1903 01005KT 9999 FEW050

Wetterbeobachtungen und Prognosen von mehr als 4000 Flughäfen (METAR und TAF Bericht).

Die verfügbaren Stationen werden durch gelbe und rote Markierungen auf der Karte dargestellt.

Führen Sie die Maus auf sie, um den Namen der Station zu sehen.

Darauf klicken, um die Beobachtung von Wetterbeobachtungen und Prognosen zu sehen.

Um die Karte zu ändern : klicken Sie auf den grünen Tasten mit einem schwarzen Kreuz Zum Vergrößern, auf den grünen Button mit einem Gedankenstrich zu verkleinern, oder auf die grünen Pfeile für benachbarte Karten.


METAR-TAF: